Share

Vicksburg, MS

DANA RD 1 (KMSVICKS14) Elev 243 ft | 32.27 °N, 90.88 °W | Change Station
Active Advisory: Flood Warning

Current weather conditions updated 14 minutes ago

Mostly Cloudy
Mostly Cloudy
74.3 °F
Feels Like 77 °F
N
3.7
Wind Variable Wind from SSW
Sunrise 6:27 AM
Sunset 7:37 PM
Moon Waning Gibbous

Today is forecast to be Much Cooler than yesterday. A few showers developing late tonight.

Pressure 30.11 in
Visibility 10.0 miles
Clouds Mostly Cloudy 9500 ft
Heat Index 77 °F
Dew Point 59 °F
Humidity 59%
Rainfall 0.00 in
Snow Depth Not available.
UV 5 out of 16
Pollen 7.90 out of 12
Air Quality Not available.
Flu Activity No Activity
METAR KVKS 211615Z AUTO VRB04G10KT 10SM BKN095 23/15 A3011 RMK A01

More Conditions Fewer Conditions

Pressure 30.11 in
Visibility 10.0 miles
Clouds Mostly Cloudy 9500 ft
Heat Index 77 °F
Dew Point 59 °F
Humidity 59%
Rainfall 0.00 in
Snow Depth Not available.
UV 5 out of 16
Pollen 7.90 out of 12
Air Quality Not available.
Flu Activity No Activity
METAR KVKS 211615Z AUTO VRB04G10KT 10SM BKN095 23/15 A3011 RMK A01

More Conditions Fewer Conditions

10-Day Weather Forecast

Almanac

Astronomy

Apr. 21, 2014 Rise Set
Actual Time 6:27 AM CDT 7:37 PM CDT
Civil Twilight 6:01 AM CDT 8:02 PM CDT
Nautical Twilight 5:31 AM CDT 8:33 PM CDT
Astronomical Twilight 5:00 AM CDT 9:04 PM CDT
Moon 1:02 AM CDT 11:58 AM CDT
Length of Visible Light 14h 00m
Length of Day
13h 09m
Tomorrow will be 1m 50s longer.
Waning Gibbous, 57% of the Moon is Illuminated
Today
Waning Gibbous
Apr 22
Last Quarter
Apr 29
New
May 6
First Quarter
May 14
Full

Today's Extremes

State Highs State Lows

Community

  • Bright Eyes
    Bright Eyes
  • Snowy Robin
    Snowy Robin
  • Spring Crocus
    Spring Crocus
  • Sun Pillar and Geese
    Sun Pillar and Geese
  • Showers on the Way
    Showers on the Way

WunderPhotos

Upload Photos

1,703,680 photos uploaded!

WunderBlogs® & News

Nearby

Snow Depth

Station Depth Elevation
No new snow has been reported.

Coastal Water Temperatures

Place Temperature
No Stations Reporting

Earthquake Activity

City Distance Mag. Time & Date
No recent earthquake activity has been reported nearby.
Minimum magnitude displayed is 2.5.

Nearby Weather Stations

Station Location Temp. Heat Index Dew Point Humidity Wind Precip. Elev Updated Type
DANA RD 1, Vicksburg, MS 74.3 °F 77 °F 59 °F 59% SSW  at  3.7 mph - / hr 243 ft 11:06 AM CDT Normal
Lake Park, Vicksburg, MS 82.0 °F 83 °F 61 °F 49% South  at  3.8 mph 0.00 in / hr 249 ft 11:15 AM CDT Normal

Show More Stations Show Fewer Stations

What do you think?

We're not finished. Please let us know what you like, what you don't like, and what you are still missing.